createdAt,value
2019-02-14T00:00:08.767Z,41.05
2019-02-14T00:01:09.594Z,41.09
2019-02-14T00:02:08.866Z,41.05
2019-02-14T00:03:08.752Z,41.05
2019-02-14T00:04:09.133Z,41.05
2019-02-14T00:05:17.077Z,41.08
2019-02-14T00:06:09.228Z,41.03
2019-02-14T00:07:09.001Z,41.02
2019-02-14T00:08:09.064Z,41.03
2019-02-14T00:09:08.932Z,41.06
2019-02-14T00:10:08.926Z,41.04
2019-02-14T00:11:08.899Z,41.04
2019-02-14T00:12:09.365Z,41.01
2019-02-14T00:13:08.692Z,41.06
2019-02-14T00:14:08.746Z,41.07
2019-02-14T00:15:10.746Z,41.07
2019-02-14T00:16:09.094Z,41.08
2019-02-14T00:17:09.034Z,41.05
2019-02-14T00:18:10.375Z,41.12
2019-02-14T00:19:09.161Z,41.08
2019-02-14T00:20:09.107Z,41.09
2019-02-14T00:21:09.897Z,41.05
2019-02-14T00:22:09.224Z,41.1
2019-02-14T00:23:09.952Z,41.05
2019-02-14T00:24:09.130Z,41.1
2019-02-14T00:25:08.933Z,41.09
2019-02-14T00:26:09.437Z,41.12
2019-02-14T00:27:09.461Z,41.06
2019-02-14T00:28:08.740Z,41.1
2019-02-14T00:29:09.380Z,41.11
2019-02-14T00:30:08.881Z,41.15
2019-02-14T00:31:09.270Z,41.07
2019-02-14T00:32:10.789Z,41.1
2019-02-14T00:33:08.812Z,41.09
2019-02-14T00:34:09.017Z,41.11
2019-02-14T00:35:09.038Z,41.1
2019-02-14T00:36:09.318Z,41.12
2019-02-14T00:37:09.757Z,41.08
2019-02-14T00:38:09.023Z,41.1
2019-02-14T00:39:10.118Z,41.05
2019-02-14T00:40:08.894Z,41.09
2019-02-14T00:41:09.104Z,41.1
2019-02-14T00:42:09.879Z,41.07
2019-02-14T00:43:09.389Z,41.11
2019-02-14T00:44:09.055Z,41.09
2019-02-14T00:45:08.969Z,41.11
2019-02-14T00:46:09.938Z,41.09
2019-02-14T00:47:09.071Z,41.09
2019-02-14T00:48:09.097Z,41.08
2019-02-14T00:49:08.785Z,41.09
2019-02-14T00:50:09.091Z,41.08
2019-02-14T00:51:08.807Z,41.09
2019-02-14T00:52:09.241Z,41.13
2019-02-14T00:53:09.076Z,41.13
2019-02-14T00:54:10.762Z,41.13
2019-02-14T00:55:09.114Z,41.14
2019-02-14T00:56:09.080Z,41.13
2019-02-14T00:57:09.382Z,41.09
2019-02-14T00:58:08.924Z,41.14
2019-02-14T00:59:09.416Z,41.07
2019-02-14T01:00:09.215Z,41.13
2019-02-14T01:01:10.039Z,41.11
2019-02-14T01:02:09.142Z,41.12
2019-02-14T01:03:09.071Z,41.11
2019-02-14T01:04:09.009Z,41.12
2019-02-14T01:05:09.238Z,41.12
2019-02-14T01:06:09.128Z,41.11
2019-02-14T01:07:09.141Z,41.13
2019-02-14T01:08:10.612Z,41.1
2019-02-14T01:09:09.161Z,41.11
2019-02-14T01:10:09.531Z,41.12
2019-02-14T01:11:09.740Z,41.11
2019-02-14T01:12:09.179Z,41.11
2019-02-14T01:13:09.188Z,41.11
2019-02-14T01:14:08.838Z,41.1
2019-02-14T01:15:09.143Z,41.11
2019-02-14T01:16:09.877Z,41.09
2019-02-14T01:17:08.772Z,41.16
2019-02-14T01:18:08.969Z,41.13
2019-02-14T01:19:09.332Z,41.17
2019-02-14T01:20:09.276Z,41.11
2019-02-14T01:21:09.588Z,41.11
2019-02-14T01:22:10.357Z,41.13
2019-02-14T01:23:09.776Z,41.1
2019-02-14T01:24:10.831Z,41.15
2019-02-14T01:25:09.027Z,41.11
2019-02-14T01:26:10.344Z,41.11
2019-02-14T01:27:09.078Z,41.1
2019-02-14T01:28:08.915Z,41.14
2019-02-14T01:29:08.768Z,41.13
2019-02-14T01:30:09.146Z,41.12
2019-02-14T01:31:09.027Z,41.07
2019-02-14T01:32:09.116Z,41.13
2019-02-14T01:33:09.336Z,41.11
2019-02-14T01:34:09.206Z,41.1
2019-02-14T01:35:09.128Z,41.16
2019-02-14T01:36:11.095Z,41.16
2019-02-14T01:37:09.356Z,41.14
2019-02-14T01:38:08.836Z,41.1
2019-02-14T01:39:09.347Z,41.08
2019-02-14T01:40:09.075Z,41.1
2019-02-14T01:41:09.068Z,41.12
2019-02-14T01:42:11.040Z,41.1
2019-02-14T01:43:09.095Z,41.13
2019-02-14T01:44:09.482Z,41.12
2019-02-14T01:45:09.214Z,41.1
2019-02-14T01:46:10.617Z,41.13
2019-02-14T01:47:09.064Z,41.1
2019-02-14T01:48:09.309Z,41.11
2019-02-14T01:49:08.902Z,41.15
2019-02-14T01:50:08.729Z,41.16
2019-02-14T01:51:09.057Z,41.16
2019-02-14T01:52:09.044Z,41.09
2019-02-14T01:53:08.713Z,41.14
2019-02-14T01:54:10.736Z,41.16
2019-02-14T01:55:09.067Z,41.12
2019-02-14T01:56:08.884Z,41.08
2019-02-14T01:57:09.281Z,41.1
2019-02-14T01:58:08.731Z,41.16
2019-02-14T01:59:08.750Z,41.12
2019-02-14T02:00:09.629Z,41.13
2019-02-14T02:01:08.910Z,41.16
2019-02-14T02:02:10.666Z,41.14
2019-02-14T02:03:09.451Z,41.09
2019-02-14T02:04:08.664Z,41.14
2019-02-14T02:05:09.360Z,41.13
2019-02-14T02:06:09.962Z,41.13
2019-02-14T02:07:08.973Z,41.12
2019-02-14T02:08:09.325Z,41.15
2019-02-14T02:09:09.220Z,41.13
2019-02-14T02:10:08.895Z,41.12
2019-02-14T02:11:09.131Z,41.13
2019-02-14T02:12:08.746Z,41.11
2019-02-14T02:13:08.866Z,41.11
2019-02-14T02:14:08.970Z,41.14
2019-02-14T02:15:08.742Z,41.1
2019-02-14T02:16:09.211Z,41.11
2019-02-14T02:17:08.837Z,41.12
2019-02-14T02:18:08.933Z,41.12
2019-02-14T02:19:08.948Z,41.13
2019-02-14T02:20:09.006Z,41.13
2019-02-14T02:21:09.117Z,41.15
2019-02-14T02:22:08.953Z,41.13
2019-02-14T02:23:09.564Z,41.08
2019-02-14T02:24:08.800Z,41.12
2019-02-14T02:25:09.201Z,41.12
2019-02-14T02:26:09.328Z,41.11
2019-02-14T02:27:09.426Z,41.1
2019-02-14T02:28:08.769Z,41.12
2019-02-14T02:29:09.118Z,41.13
2019-02-14T02:30:09.091Z,41.12
2019-02-14T02:31:09.102Z,41.12
2019-02-14T02:32:09.041Z,41.12
2019-02-14T02:33:10.720Z,41.17
2019-02-14T02:34:09.285Z,41.17
2019-02-14T02:35:09.082Z,41.12
2019-02-14T02:36:09.067Z,41.16
2019-02-14T02:37:10.153Z,41.12
2019-02-14T02:38:09.377Z,41.12
2019-02-14T02:39:09.602Z,41.11
2019-02-14T02:40:09.006Z,41.12
2019-02-14T02:41:08.760Z,41.14
2019-02-14T02:42:08.911Z,41.14
2019-02-14T02:43:09.066Z,41.1
2019-02-14T02:44:09.393Z,41.1
2019-02-14T02:45:09.443Z,41.1
2019-02-14T02:46:08.723Z,41.1
2019-02-14T02:47:09.465Z,41.1
2019-02-14T02:48:08.889Z,41.1
2019-02-14T02:49:10.555Z,41.12
2019-02-14T02:50:08.988Z,41.12
2019-02-14T02:51:09.295Z,41.09
2019-02-14T02:52:09.381Z,41.08
2019-02-14T02:53:09.882Z,41.15
2019-02-14T02:54:09.232Z,41.12
2019-02-14T02:55:08.937Z,41.08
2019-02-14T02:56:08.856Z,41.08
2019-02-14T02:57:09.695Z,41.03
2019-02-14T02:58:09.274Z,41.12
2019-02-14T02:59:08.719Z,41.07
2019-02-14T03:00:08.798Z,41.06
2019-02-14T03:01:08.800Z,41.1
2019-02-14T03:02:09.413Z,41.1
2019-02-14T03:03:08.920Z,41.1
2019-02-14T03:04:09.470Z,41.07
2019-02-14T03:05:10.726Z,41.06
2019-02-14T03:06:11.375Z,41.08
2019-02-14T03:07:09.012Z,41.11
2019-02-14T03:08:09.426Z,41.1
2019-02-14T03:09:08.729Z,41.11
2019-02-14T03:10:09.893Z,41.08
2019-02-14T03:11:09.705Z,41.08
2019-02-14T03:12:09.327Z,41.05
2019-02-14T03:13:09.187Z,41.09
2019-02-14T03:14:09.352Z,41.09
2019-02-14T03:15:08.751Z,41.08
2019-02-14T03:16:09.226Z,41.11
2019-02-14T03:17:09.157Z,41.09
2019-02-14T03:18:09.057Z,41.12
2019-02-14T03:19:09.403Z,41.09
2019-02-14T03:20:10.778Z,41.12
2019-02-14T03:21:08.953Z,41.09
2019-02-14T03:22:09.284Z,41.09
2019-02-14T03:23:09.375Z,41.08
2019-02-14T03:24:09.798Z,41.09
2019-02-14T03:25:09.124Z,41.09
2019-02-14T03:26:09.887Z,41.04
2019-02-14T03:27:09.135Z,41.07
2019-02-14T03:28:09.111Z,41.1
2019-02-14T03:29:08.912Z,41.05
2019-02-14T03:30:09.089Z,41.04
2019-02-14T03:31:10.775Z,41.05
2019-02-14T03:32:09.728Z,41.04
2019-02-14T03:33:09.339Z,41.09
2019-02-14T03:34:09.072Z,41.05
2019-02-14T03:35:09.538Z,41.09
2019-02-14T03:36:09.161Z,41.05
2019-02-14T03:37:09.286Z,41.05
2019-02-14T03:38:09.107Z,41.03
2019-02-14T03:39:09.220Z,41.06
2019-02-14T03:40:09.492Z,41.03
2019-02-14T03:41:09.003Z,41.07
2019-02-14T03:42:08.872Z,41.05
2019-02-14T03:43:10.734Z,41.06
2019-02-14T03:44:08.850Z,41.06
2019-02-14T03:45:09.341Z,41.05
2019-02-14T03:46:09.727Z,41.07
2019-02-14T03:47:08.711Z,41.06
2019-02-14T03:48:09.177Z,41.06
2019-02-14T03:49:09.005Z,41.06
2019-02-14T03:50:08.692Z,41.07
2019-02-14T03:51:09.126Z,41.06
2019-02-14T03:52:09.318Z,41.05
2019-02-14T03:53:09.633Z,41.08
2019-02-14T03:54:10.413Z,41.02
2019-02-14T03:55:09.125Z,41.05
2019-02-14T03:56:10.554Z,41.03
2019-02-14T03:57:08.891Z,41.02
2019-02-14T03:58:08.764Z,41.02
2019-02-14T03:59:08.933Z,41.06
2019-02-14T04:00:08.950Z,41.02
2019-02-14T04:01:09.644Z,40.99
2019-02-14T04:02:09.033Z,41.02
2019-02-14T04:03:09.278Z,41.04
2019-02-14T04:04:09.239Z,41.03
2019-02-14T04:05:08.982Z,41
2019-02-14T04:06:09.928Z,40.98
2019-02-14T04:07:09.632Z,41.03
2019-02-14T04:08:08.762Z,40.99
2019-02-14T04:09:09.411Z,40.98
2019-02-14T04:10:08.709Z,40.99
2019-02-14T04:11:08.913Z,41.03
2019-02-14T04:12:09.116Z,41.03
2019-02-14T04:13:09.268Z,41.03
2019-02-14T04:14:09.910Z,41.03
2019-02-14T04:15:09.548Z,41.02
2019-02-14T04:16:09.641Z,41.01
2019-02-14T04:17:08.752Z,40.99
2019-02-14T04:18:09.071Z,41
2019-02-14T04:19:09.164Z,40.99
2019-02-14T04:20:09.384Z,40.96
2019-02-14T04:21:09.022Z,40.97
2019-02-14T04:22:08.900Z,41
2019-02-14T04:23:09.125Z,41
2019-02-14T04:24:09.522Z,41.02
2019-02-14T04:25:08.554Z,40.97
2019-02-14T04:26:08.926Z,40.96
2019-02-14T04:27:10.709Z,41
2019-02-14T04:28:09.282Z,40.94
2019-02-14T04:29:08.907Z,41
2019-02-14T04:30:09.295Z,40.99
2019-02-14T04:31:08.878Z,40.98
2019-02-14T04:32:09.148Z,40.97
2019-02-14T04:33:09.154Z,41.02
2019-02-14T04:34:09.082Z,40.99
2019-02-14T04:35:09.195Z,40.97
2019-02-14T04:36:09.001Z,40.98
2019-02-14T04:37:09.425Z,40.96
2019-02-14T04:38:09.395Z,40.99
2019-02-14T04:39:09.164Z,40.99
2019-02-14T04:40:09.030Z,40.99
2019-02-14T04:41:08.793Z,40.96
2019-02-14T04:42:09.317Z,40.96
2019-02-14T04:43:08.759Z,40.94
2019-02-14T04:44:08.669Z,40.98
2019-02-14T04:45:08.494Z,40.97
2019-02-14T04:46:09.161Z,41.03
2019-02-14T04:47:09.745Z,41.05
2019-02-14T04:48:09.073Z,41.03
2019-02-14T04:49:09.184Z,41.06
2019-02-14T04:50:09.125Z,41.02
2019-02-14T04:51:09.250Z,41.07
2019-02-14T04:52:10.658Z,41.02
2019-02-14T04:53:09.174Z,41.01
2019-02-14T04:54:09.048Z,41
2019-02-14T04:55:08.954Z,40.92
2019-02-14T04:56:08.801Z,40.93
2019-02-14T04:57:08.828Z,40.91
2019-02-14T04:58:09.557Z,40.93
2019-02-14T04:59:10.699Z,40.91
2019-02-14T05:00:08.941Z,41.02
2019-02-14T05:01:09.373Z,41.05
2019-02-14T05:02:09.012Z,41.1
2019-02-14T05:03:08.884Z,41.02
2019-02-14T05:04:10.724Z,41.04
2019-02-14T05:05:09.425Z,41.07
2019-02-14T05:06:09.092Z,41.01
2019-02-14T05:07:09.396Z,41.09
2019-02-14T05:08:08.823Z,41
2019-02-14T05:09:09.117Z,40.99
2019-02-14T05:10:09.303Z,40.97
2019-02-14T05:11:09.040Z,40.98
2019-02-14T05:12:08.726Z,40.93
2019-02-14T05:13:09.169Z,40.97
2019-02-14T05:14:08.574Z,40.91
2019-02-14T05:15:09.998Z,40.83
2019-02-14T05:16:08.754Z,40.9
2019-02-14T05:17:09.003Z,40.88
2019-02-14T05:18:09.197Z,40.79
2019-02-14T05:19:10.777Z,40.79
2019-02-14T05:20:10.255Z,40.78
2019-02-14T05:21:09.530Z,40.78
2019-02-14T05:22:09.771Z,40.74
2019-02-14T05:23:08.755Z,40.72
2019-02-14T05:24:09.284Z,40.68
2019-02-14T05:25:08.982Z,40.71
2019-02-14T05:26:09.054Z,40.68
2019-02-14T05:27:08.649Z,40.63
2019-02-14T05:28:09.051Z,40.69
2019-02-14T05:29:09.053Z,40.69
2019-02-14T05:30:08.796Z,40.7
2019-02-14T05:31:08.959Z,40.7
2019-02-14T05:32:08.880Z,40.64
2019-02-14T05:33:08.750Z,40.69
2019-02-14T05:34:08.989Z,40.69
2019-02-14T05:35:08.979Z,40.72
2019-02-14T05:36:09.129Z,40.67
2019-02-14T05:37:08.998Z,40.67
2019-02-14T05:38:09.234Z,40.73
2019-02-14T05:39:09.302Z,40.69
2019-02-14T05:40:09.191Z,40.74
2019-02-14T05:41:09.209Z,40.68
2019-02-14T05:42:09.704Z,40.65
2019-02-14T05:43:09.995Z,40.67
2019-02-14T05:44:08.821Z,40.67
2019-02-14T05:45:08.821Z,40.67
2019-02-14T05:46:09.149Z,40.67
2019-02-14T05:47:09.130Z,40.66
2019-02-14T05:48:08.816Z,40.68
2019-02-14T05:49:08.892Z,40.66
2019-02-14T05:50:08.850Z,40.67
2019-02-14T05:51:09.331Z,40.65
2019-02-14T05:52:09.529Z,40.67
2019-02-14T05:53:08.877Z,40.68
2019-02-14T05:54:09.297Z,40.68
2019-02-14T05:55:08.757Z,40.68
2019-02-14T05:56:09.271Z,40.65
2019-02-14T05:57:09.074Z,40.61
2019-02-14T05:58:08.954Z,40.63
2019-02-14T05:59:09.183Z,40.66
2019-02-14T06:00:09.225Z,40.62
2019-02-14T06:01:08.725Z,40.62
2019-02-14T06:02:08.958Z,40.66
2019-02-14T06:03:09.088Z,40.63
2019-02-14T06:04:09.536Z,40.62
2019-02-14T06:05:09.633Z,40.62
2019-02-14T06:06:09.017Z,40.57
2019-02-14T06:07:10.525Z,40.58
2019-02-14T06:08:10.144Z,40.61
2019-02-14T06:09:08.959Z,40.57
2019-02-14T06:10:09.063Z,40.58
2019-02-14T06:11:09.086Z,40.63
2019-02-14T06:12:09.002Z,40.59
2019-02-14T06:13:09.375Z,40.57
2019-02-14T06:14:10.139Z,40.6
2019-02-14T06:15:08.607Z,40.59
2019-02-14T06:16:09.009Z,40.57
2019-02-14T06:17:09.112Z,40.53
2019-02-14T06:18:08.988Z,40.5
2019-02-14T06:19:08.917Z,40.51
2019-02-14T06:20:09.261Z,40.52
2019-02-14T06:21:09.062Z,40.5
2019-02-14T06:22:08.768Z,40.5
2019-02-14T06:23:08.771Z,40.46
2019-02-14T06:24:09.125Z,40.49
2019-02-14T06:25:09.309Z,40.5
2019-02-14T06:26:09.818Z,40.46
2019-02-14T06:27:09.489Z,40.5
2019-02-14T06:28:09.011Z,40.45
2019-02-14T06:29:08.869Z,40.38
2019-02-14T06:30:08.797Z,40.37
2019-02-14T06:31:09.031Z,40.45
2019-02-14T06:32:09.701Z,40.4
2019-02-14T06:33:09.014Z,40.4
2019-02-14T06:34:08.914Z,40.46
2019-02-14T06:35:09.039Z,40.4
2019-02-14T06:36:09.843Z,40.4
2019-02-14T06:37:10.430Z,40.37
2019-02-14T06:38:08.762Z,40.4
2019-02-14T06:39:09.463Z,40.39
2019-02-14T06:40:08.722Z,40.4
2019-02-14T06:41:09.149Z,40.37
2019-02-14T06:42:08.547Z,40.44
2019-02-14T06:43:08.980Z,40.35
2019-02-14T06:44:08.940Z,40.37
2019-02-14T06:45:08.600Z,40.4
2019-02-14T06:46:09.549Z,40.34
2019-02-14T06:47:09.038Z,40.35
2019-02-14T06:48:08.713Z,40.33
2019-02-14T06:49:10.511Z,40.33
2019-02-14T06:50:09.503Z,40.35
2019-02-14T06:51:08.682Z,40.31
2019-02-14T06:52:09.837Z,40.25
2019-02-14T06:53:08.757Z,40.33
2019-02-14T06:54:08.520Z,40.31
2019-02-14T06:55:08.698Z,40.32
2019-02-14T06:56:08.957Z,40.28
2019-02-14T06:57:08.795Z,40.3
2019-02-14T06:58:09.060Z,40.31
2019-02-14T06:59:08.795Z,40.32
2019-02-14T07:00:08.812Z,40.28
2019-02-14T07:01:08.925Z,40.28
2019-02-14T07:02:08.788Z,40.27
2019-02-14T07:03:08.573Z,40.25
2019-02-14T07:04:09.287Z,40.29
2019-02-14T07:05:10.675Z,40.31
2019-02-14T07:06:08.863Z,40.36
2019-02-14T07:07:08.944Z,40.28
2019-02-14T07:08:09.884Z,40.29
2019-02-14T07:09:08.754Z,40.25
2019-02-14T07:10:09.463Z,40.37
2019-02-14T07:11:09.842Z,40.31
2019-02-14T07:12:09.135Z,40.27
2019-02-14T07:13:09.619Z,40.27
2019-02-14T07:14:08.917Z,40.27
2019-02-14T07:15:09.155Z,40.29
2019-02-14T07:16:10.649Z,40.31
2019-02-14T07:17:08.933Z,40.33
2019-02-14T07:18:10.632Z,40.25
2019-02-14T07:19:08.723Z,40.29
2019-02-14T07:20:09.475Z,40.2
2019-02-14T07:21:08.995Z,40.29
2019-02-14T07:22:08.893Z,40.33
2019-02-14T07:23:08.878Z,40.28
2019-02-14T07:24:09.457Z,40.32
2019-02-14T07:25:08.699Z,40.29
2019-02-14T07:26:08.791Z,40.29
2019-02-14T07:27:09.313Z,40.28
2019-02-14T07:28:08.793Z,40.25
2019-02-14T07:29:08.869Z,40.29
2019-02-14T07:30:09.282Z,40.29
2019-02-14T07:31:09.076Z,40.25
2019-02-14T07:32:10.770Z,40.24
2019-02-14T07:33:09.792Z,40.25
2019-02-14T07:34:09.625Z,40.26
2019-02-14T07:35:10.577Z,40.29
2019-02-14T07:36:10.719Z,40.25
2019-02-14T07:37:09.423Z,40.2
2019-02-14T07:38:10.628Z,40.29
2019-02-14T07:39:11.242Z,40.21
2019-02-14T07:40:09.638Z,40.29
2019-02-14T07:41:08.662Z,40.25
2019-02-14T07:42:08.814Z,40.24
2019-02-14T07:43:08.735Z,40.25
2019-02-14T07:44:08.818Z,40.25
2019-02-14T07:45:09.489Z,40.2
2019-02-14T07:46:09.500Z,40.23
2019-02-14T07:47:09.319Z,40.21
2019-02-14T07:48:08.790Z,40.19
2019-02-14T07:49:08.873Z,40.2
2019-02-14T07:50:08.890Z,40.17
2019-02-14T07:51:08.739Z,40.16
2019-02-14T07:52:08.962Z,40.23
2019-02-14T07:53:10.496Z,40.18
2019-02-14T07:54:08.976Z,40.25
2019-02-14T07:55:11.828Z,40.25
2019-02-14T07:56:09.692Z,40.16
2019-02-14T07:57:08.849Z,40.2
2019-02-14T07:58:08.895Z,40.2
2019-02-14T07:59:08.663Z,40.19
2019-02-14T08:00:09.008Z,40.14
2019-02-14T08:01:09.071Z,40.21
2019-02-14T08:02:09.254Z,40.18
2019-02-14T08:03:09.089Z,40.15
2019-02-14T08:04:09.021Z,40.2
2019-02-14T08:05:10.152Z,40.11
2019-02-14T08:06:08.792Z,40.22
2019-02-14T08:07:09.162Z,40.15
2019-02-14T08:08:08.747Z,40.13
2019-02-14T08:09:08.897Z,40.23
2019-02-14T08:10:09.109Z,40.11
2019-02-14T08:11:09.324Z,40.11
2019-02-14T08:12:08.961Z,40.11
2019-02-14T08:13:08.537Z,40.17
2019-02-14T08:14:08.866Z,40.17
2019-02-14T08:15:08.784Z,40.11
2019-02-14T08:16:10.265Z,40.09
2019-02-14T08:17:08.729Z,40.13
2019-02-14T08:18:09.251Z,40.1
2019-02-14T08:19:09.209Z,40.09
2019-02-14T08:20:08.735Z,40.11
2019-02-14T08:21:08.956Z,40.11
2019-02-14T08:22:10.513Z,40.09
2019-02-14T08:23:08.792Z,40.1
2019-02-14T08:24:08.873Z,40.18
2019-02-14T08:25:08.705Z,40.27
2019-02-14T08:26:11.572Z,40.45
2019-02-14T08:27:08.837Z,40.35
2019-02-14T08:28:09.639Z,40.4
2019-02-14T08:29:09.730Z,40.42
2019-02-14T08:30:08.843Z,40.45
2019-02-14T08:31:08.951Z,40.52
2019-02-14T08:32:08.974Z,40.59
2019-02-14T08:33:08.779Z,40.65
2019-02-14T08:34:08.933Z,40.69
2019-02-14T08:35:08.875Z,40.7
2019-02-14T08:36:08.918Z,40.7
2019-02-14T08:37:09.096Z,40.65
2019-02-14T08:38:08.752Z,40.69
2019-02-14T08:39:09.395Z,40.7
2019-02-14T08:40:08.960Z,40.67
2019-02-14T08:41:08.700Z,40.63
2019-02-14T08:42:09.738Z,40.67
2019-02-14T08:43:09.196Z,40.63
2019-02-14T08:44:08.887Z,40.68
2019-02-14T08:45:08.661Z,40.71
2019-02-14T08:46:09.154Z,40.65
2019-02-14T08:47:10.453Z,40.66
2019-02-14T08:48:09.388Z,40.6
2019-02-14T08:49:08.882Z,40.59
2019-02-14T08:50:08.832Z,40.59
2019-02-14T08:51:09.070Z,40.59
2019-02-14T08:52:08.925Z,40.56
2019-02-14T08:53:09.254Z,40.56
2019-02-14T08:54:08.823Z,40.57
2019-02-14T08:55:10.543Z,40.53
2019-02-14T08:56:09.014Z,40.49
2019-02-14T08:57:08.804Z,40.49
2019-02-14T08:58:08.885Z,40.52
2019-02-14T08:59:08.986Z,40.49
2019-02-14T09:00:10.649Z,40.49
2019-02-14T09:01:08.875Z,40.41
2019-02-14T09:02:09.348Z,40.48
2019-02-14T09:03:08.804Z,40.41
2019-02-14T09:04:09.206Z,40.41
2019-02-14T09:05:08.607Z,40.36
2019-02-14T09:06:08.609Z,40.41
2019-02-14T09:07:08.518Z,40.31
2019-02-14T09:08:08.607Z,40.42
2019-02-14T09:09:08.486Z,40.36
2019-02-14T09:10:08.759Z,40.45
2019-02-14T09:11:09.026Z,40.33
2019-02-14T09:12:08.833Z,40.4
2019-02-14T09:13:17.762Z,40.23
2019-02-14T09:14:09.286Z,40.27
2019-02-14T09:15:08.960Z,40.33
2019-02-14T09:16:08.805Z,40.36
2019-02-14T09:17:08.827Z,40.42
2019-02-14T09:18:09.392Z,40.32
2019-02-14T09:19:08.773Z,40.33
2019-02-14T09:20:09.208Z,40.3
2019-02-14T09:21:09.491Z,40.31
2019-02-14T09:22:10.086Z,41.45
2019-02-14T09:23:08.940Z,40.77
2019-02-14T09:24:08.499Z,40.8
2019-02-14T09:25:08.838Z,40.81
2019-02-14T09:26:09.333Z,41.12
2019-02-14T09:27:08.688Z,41.22
2019-02-14T09:28:08.731Z,41.18
2019-02-14T09:29:08.834Z,41.3
2019-02-14T09:30:09.020Z,41.33
2019-02-14T09:31:09.037Z,41.21
2019-02-14T09:32:08.851Z,41.29
2019-02-14T09:33:10.378Z,41.28
2019-02-14T09:34:10.497Z,41.34
2019-02-14T09:35:08.744Z,41.25
2019-02-14T09:36:09.141Z,41.24
2019-02-14T09:37:08.694Z,41.31
2019-02-14T09:38:08.939Z,41.31
2019-02-14T09:39:08.817Z,41.27
2019-02-14T09:40:09.194Z,41.31
2019-02-14T09:41:08.810Z,41.33
2019-02-14T09:42:08.624Z,41.28
2019-02-14T09:43:09.742Z,41.28
2019-02-14T09:44:09.643Z,41.32
2019-02-14T09:45:08.925Z,41.28
2019-02-14T09:46:09.695Z,41.17
2019-02-14T09:47:09.066Z,41.15
2019-02-14T09:48:09.031Z,41.19
2019-02-14T09:49:08.816Z,41.12
2019-02-14T09:50:08.743Z,41.18
2019-02-14T09:51:08.829Z,41.22
2019-02-14T09:52:08.579Z,41.21
2019-02-14T09:53:08.936Z,41.14
2019-02-14T09:54:10.571Z,41.25
2019-02-14T09:55:08.791Z,41.22
2019-02-14T09:56:09.283Z,41.24
2019-02-14T09:57:09.609Z,41.12
2019-02-14T09:58:09.973Z,41.38
2019-02-14T09:59:09.386Z,41.16
2019-02-14T10:00:08.846Z,41.19
2019-02-14T10:01:09.070Z,41.15
2019-02-14T10:02:10.061Z,41.15
2019-02-14T10:03:08.806Z,41.12
2019-02-14T10:04:08.803Z,41.1
2019-02-14T10:05:09.232Z,41.07
2019-02-14T10:06:09.882Z,41.05
2019-02-14T10:07:08.801Z,41.15
2019-02-14T10:08:13.633Z,41.15
2019-02-14T10:09:09.468Z,40.86
2019-02-14T10:10:09.350Z,40.84
2019-02-14T10:11:10.658Z,40.87
2019-02-14T10:12:09.029Z,40.78
2019-02-14T10:13:09.788Z,40.77
2019-02-14T10:14:08.980Z,40.77
2019-02-14T10:15:08.834Z,40.76
2019-02-14T10:16:08.911Z,40.72
2019-02-14T10:17:08.893Z,40.72
2019-02-14T10:18:10.492Z,40.74
2019-02-14T10:19:08.886Z,40.72
2019-02-14T10:20:08.765Z,40.71
2019-02-14T10:21:08.834Z,40.71
2019-02-14T10:22:08.895Z,40.7
2019-02-14T10:23:08.932Z,40.7
2019-02-14T10:24:08.557Z,40.77
2019-02-14T10:25:08.684Z,40.77
2019-02-14T10:26:08.443Z,40.75
2019-02-14T10:27:09.796Z,40.72
2019-02-14T10:28:08.895Z,40.71
2019-02-14T10:29:08.778Z,40.72
2019-02-14T10:30:08.904Z,40.72
2019-02-14T10:31:08.778Z,40.66
2019-02-14T10:32:08.869Z,40.69
2019-02-14T10:33:09.089Z,40.7
2019-02-14T10:34:10.172Z,40.68
2019-02-14T10:35:08.963Z,40.68
2019-02-14T10:36:09.080Z,40.69
2019-02-14T10:37:08.427Z,40.7
2019-02-14T10:38:08.836Z,40.69
2019-02-14T10:39:08.932Z,40.69
2019-02-14T10:40:08.491Z,40.68
2019-02-14T10:41:08.785Z,40.71
2019-02-14T10:42:09.913Z,40.58
2019-02-14T10:43:08.834Z,40.62
2019-02-14T10:44:08.780Z,40.61
2019-02-14T10:45:09.428Z,40.6
2019-02-14T10:46:08.777Z,40.62
2019-02-14T10:47:08.851Z,40.57
2019-02-14T10:48:10.771Z,40.57
2019-02-14T10:49:08.368Z,40.6
2019-02-14T10:50:08.717Z,40.56
2019-02-14T10:51:08.803Z,40.63
2019-02-14T10:52:09.148Z,40.49
2019-02-14T10:53:09.055Z,40.6
2019-02-14T10:54:08.708Z,40.55
2019-02-14T10:55:09.045Z,40.52
2019-02-14T10:56:08.704Z,40.5
2019-02-14T10:57:08.693Z,39.98
2019-02-14T10:58:08.826Z,39.92
2019-02-14T10:59:08.885Z,39.96
2019-02-14T11:00:08.708Z,40.02
2019-02-14T11:01:08.786Z,40.16
2019-02-14T11:02:10.632Z,40.2
2019-02-14T11:03:08.934Z,40.36
2019-02-14T11:04:08.802Z,40.53
2019-02-14T11:05:09.003Z,40.56
2019-02-14T11:06:09.006Z,40.61
2019-02-14T11:07:08.738Z,40.52
2019-02-14T11:08:08.989Z,40.6
2019-02-14T11:09:08.762Z,40.58
2019-02-14T11:10:09.408Z,40.65
2019-02-14T11:11:09.383Z,40.56
2019-02-14T11:12:09.056Z,40.56
2019-02-14T11:13:08.770Z,40.59
2019-02-14T11:14:09.500Z,40.58
2019-02-14T11:15:09.584Z,40.6
2019-02-14T11:16:10.176Z,40.55
2019-02-14T11:17:08.971Z,40.49
2019-02-14T11:18:08.998Z,39.77
2019-02-14T11:19:08.771Z,39.36
2019-02-14T11:20:09.411Z,38.87
2019-02-14T11:21:09.799Z,38.4
2019-02-14T11:22:08.498Z,37.55
2019-02-14T11:23:09.393Z,37.68
2019-02-14T11:24:09.134Z,37.77
2019-02-14T11:25:08.925Z,38.34
2019-02-14T11:26:09.112Z,38.63
2019-02-14T11:27:08.787Z,38.64
2019-02-14T11:28:10.668Z,38.9
2019-02-14T11:29:09.216Z,39.13
2019-02-14T11:30:08.661Z,39.23
2019-02-14T11:31:09.670Z,39.43
2019-02-14T11:32:09.709Z,39.49
2019-02-14T11:33:09.174Z,39.35
2019-02-14T11:34:09.280Z,39.34
2019-02-14T11:35:09.034Z,39.38
2019-02-14T11:36:08.733Z,39.59
2019-02-14T11:37:09.161Z,38.95
2019-02-14T11:38:08.849Z,38.97
2019-02-14T11:39:08.827Z,39.48
2019-02-14T11:40:09.004Z,38.96
2019-02-14T11:41:10.379Z,39.2
2019-02-14T11:42:09.062Z,39.36
2019-02-14T11:43:09.271Z,39.45
2019-02-14T11:44:08.969Z,39.56
2019-02-14T11:45:08.812Z,39.67
2019-02-14T11:46:09.198Z,39.75
2019-02-14T11:47:09.043Z,39.77
2019-02-14T11:48:08.702Z,39.75
2019-02-14T11:49:09.738Z,39.82
2019-02-14T11:50:10.412Z,39.83
2019-02-14T11:51:08.813Z,39.86
2019-02-14T11:52:09.152Z,39.87
2019-02-14T11:54:08.469Z,39.95
2019-02-14T11:55:09.156Z,39.9
2019-02-14T11:55:13.735Z,39.9
2019-02-14T11:56:10.377Z,39.94
2019-02-14T11:57:08.795Z,39.91
2019-02-14T11:58:09.059Z,39.79
2019-02-14T11:59:09.384Z,38.99
2019-02-14T12:00:08.524Z,39.08
2019-02-14T12:01:09.833Z,39.28
2019-02-14T12:02:08.700Z,39.48
2019-02-14T12:03:09.274Z,39.65
2019-02-14T12:04:08.894Z,39.66
2019-02-14T12:05:08.950Z,39.7
2019-02-14T12:06:08.789Z,39.69
2019-02-14T12:07:08.738Z,39.69
2019-02-14T12:08:09.958Z,39.75
2019-02-14T12:09:08.694Z,39.72
2019-02-14T12:10:14.238Z,39.75
2019-02-14T12:11:09.313Z,39.71
2019-02-14T12:12:08.800Z,39.72
2019-02-14T12:13:09.214Z,40
2019-02-14T12:14:09.122Z,40.14
2019-02-14T12:15:08.456Z,40.25
2019-02-14T12:16:10.054Z,40.42
2019-02-14T12:17:09.977Z,40.47
2019-02-14T12:18:08.755Z,40.59
2019-02-14T12:19:08.824Z,40.62
2019-02-14T12:20:13.055Z,40.56
2019-02-14T12:21:08.715Z,40.53
2019-02-14T12:22:08.746Z,40.61
2019-02-14T12:23:09.745Z,40.58
2019-02-14T12:24:08.469Z,40.65
2019-02-14T12:25:08.821Z,40.49
2019-02-14T12:26:09.091Z,40.61
2019-02-14T12:27:09.082Z,40.53
2019-02-14T12:28:08.536Z,40.53
2019-02-14T12:29:09.760Z,40.54
2019-02-14T12:30:08.910Z,40.46
2019-02-14T12:31:08.788Z,40.46
2019-02-14T12:32:09.776Z,40.45
2019-02-14T12:33:09.032Z,40.55
2019-02-14T12:34:10.400Z,40.51
2019-02-14T12:35:09.022Z,40.49
2019-02-14T12:36:08.919Z,40.56
2019-02-14T12:37:09.730Z,40.54
2019-02-14T12:38:08.687Z,40.42
2019-02-14T12:39:12.096Z,40.42
2019-02-14T12:40:10.365Z,40.37
2019-02-14T12:41:10.609Z,40.27
2019-02-14T12:42:08.711Z,40.35
2019-02-14T12:43:08.848Z,40.6
2019-02-14T12:44:09.108Z,40.5
2019-02-14T12:45:09.468Z,39.92
2019-02-14T12:46:08.964Z,39.89
2019-02-14T12:47:09.027Z,39.93
2019-02-14T12:48:08.711Z,39.99
2019-02-14T12:49:08.860Z,40.08
2019-02-14T12:50:10.486Z,40.13
2019-02-14T12:51:08.743Z,40.11
2019-02-14T12:52:09.085Z,40.13
2019-02-14T12:53:09.117Z,40.13
2019-02-14T12:54:08.474Z,40.18
2019-02-14T12:55:09.023Z,40.14
2019-02-14T12:56:09.369Z,40.18